sensor_id;sensor_type;location;lat;lon;timestamp;temperature;humidity
48007;DHT22;33771;48.180;11.400;2024-03-25T00:01:31;3.80;99.90
48007;DHT22;33771;48.180;11.400;2024-03-25T00:03:57;3.80;99.90
48007;DHT22;33771;48.180;11.400;2024-03-25T00:06:22;3.80;99.90
48007;DHT22;33771;48.180;11.400;2024-03-25T00:08:48;3.80;99.90
48007;DHT22;33771;48.180;11.400;2024-03-25T00:11:13;3.80;99.90
48007;DHT22;33771;48.180;11.400;2024-03-25T00:13:39;3.80;99.90
48007;DHT22;33771;48.180;11.400;2024-03-25T00:16:05;3.80;99.90
48007;DHT22;33771;48.180;11.400;2024-03-25T00:18:31;3.80;99.90
48007;DHT22;33771;48.180;11.400;2024-03-25T00:20:57;3.80;99.90
48007;DHT22;33771;48.180;11.400;2024-03-25T00:23:23;3.80;99.90
48007;DHT22;33771;48.180;11.400;2024-03-25T00:25:48;3.80;99.90
48007;DHT22;33771;48.180;11.400;2024-03-25T00:28:14;3.70;99.90
48007;DHT22;33771;48.180;11.400;2024-03-25T00:30:40;3.70;99.90
48007;DHT22;33771;48.180;11.400;2024-03-25T00:33:05;3.80;99.90
48007;DHT22;33771;48.180;11.400;2024-03-25T00:35:32;3.80;99.90
48007;DHT22;33771;48.180;11.400;2024-03-25T00:37:58;3.80;99.90
48007;DHT22;33771;48.180;11.400;2024-03-25T00:40:24;3.90;99.90
48007;DHT22;33771;48.180;11.400;2024-03-25T00:42:50;3.90;99.90
48007;DHT22;33771;48.180;11.400;2024-03-25T00:45:15;3.80;99.90
48007;DHT22;33771;48.180;11.400;2024-03-25T00:47:41;3.80;99.90
48007;DHT22;33771;48.180;11.400;2024-03-25T00:50:07;3.70;99.90
48007;DHT22;33771;48.180;11.400;2024-03-25T00:52:34;3.70;99.90
48007;DHT22;33771;48.180;11.400;2024-03-25T00:55:00;3.70;99.90
48007;DHT22;33771;48.180;11.400;2024-03-25T00:57:26;3.70;99.90
48007;DHT22;33771;48.180;11.400;2024-03-25T00:59:52;3.70;99.90
48007;DHT22;33771;48.180;11.400;2024-03-25T01:02:17;3.60;99.90
48007;DHT22;33771;48.180;11.400;2024-03-25T01:04:43;3.60;99.90
48007;DHT22;33771;48.180;11.400;2024-03-25T01:07:09;3.60;99.90
48007;DHT22;33771;48.180;11.400;2024-03-25T01:09:34;3.60;99.90
48007;DHT22;33771;48.180;11.400;2024-03-25T01:12:00;3.70;99.90
48007;DHT22;33771;48.180;11.400;2024-03-25T01:14:26;3.60;99.90
48007;DHT22;33771;48.180;11.400;2024-03-25T01:16:52;3.70;99.90
48007;DHT22;33771;48.180;11.400;2024-03-25T01:19:18;3.60;99.90
48007;DHT22;33771;48.180;11.400;2024-03-25T01:21:43;3.60;99.90
48007;DHT22;33771;48.180;11.400;2024-03-25T01:24:09;3.60;99.90
48007;DHT22;33771;48.180;11.400;2024-03-25T01:26:35;3.60;99.90
48007;DHT22;33771;48.180;11.400;2024-03-25T01:29:01;3.60;99.90
48007;DHT22;33771;48.180;11.400;2024-03-25T01:31:27;3.50;99.90
48007;DHT22;33771;48.180;11.400;2024-03-25T01:33:52;3.50;99.90
48007;DHT22;33771;48.180;11.400;2024-03-25T01:36:18;3.50;99.90
48007;DHT22;33771;48.180;11.400;2024-03-25T01:38:47;3.50;99.90
48007;DHT22;33771;48.180;11.400;2024-03-25T01:41:13;3.50;99.90
48007;DHT22;33771;48.180;11.400;2024-03-25T01:43:41;3.40;99.90
48007;DHT22;33771;48.180;11.400;2024-03-25T01:46:07;3.40;99.90
48007;DHT22;33771;48.180;11.400;2024-03-25T01:48:33;3.40;99.90
48007;DHT22;33771;48.180;11.400;2024-03-25T01:51:00;3.40;99.90
48007;DHT22;33771;48.180;11.400;2024-03-25T01:53:28;3.40;99.90
48007;DHT22;33771;48.180;11.400;2024-03-25T01:55:55;3.30;99.90
48007;DHT22;33771;48.180;11.400;2024-03-25T01:58:23;3.40;99.90
48007;DHT22;33771;48.180;11.400;2024-03-25T02:00:50;3.40;99.90
48007;DHT22;33771;48.180;11.400;2024-03-25T02:03:16;3.40;99.90
48007;DHT22;33771;48.180;11.400;2024-03-25T02:05:42;3.40;99.90
48007;DHT22;33771;48.180;11.400;2024-03-25T02:08:09;3.40;99.90
48007;DHT22;33771;48.180;11.400;2024-03-25T02:10:35;3.40;99.90
48007;DHT22;33771;48.180;11.400;2024-03-25T02:13:03;3.30;99.90
48007;DHT22;33771;48.180;11.400;2024-03-25T02:15:28;3.30;99.90
48007;DHT22;33771;48.180;11.400;2024-03-25T02:17:54;3.30;99.90
48007;DHT22;33771;48.180;11.400;2024-03-25T02:20:20;3.30;99.90
48007;DHT22;33771;48.180;11.400;2024-03-25T02:22:45;3.30;99.90
48007;DHT22;33771;48.180;11.400;2024-03-25T02:25:11;3.30;99.90
48007;DHT22;33771;48.180;11.400;2024-03-25T02:27:39;3.20;99.90
48007;DHT22;33771;48.180;11.400;2024-03-25T02:30:06;3.30;99.90
48007;DHT22;33771;48.180;11.400;2024-03-25T02:32:33;3.20;99.90
48007;DHT22;33771;48.180;11.400;2024-03-25T02:34:59;3.20;99.90
48007;DHT22;33771;48.180;11.400;2024-03-25T02:37:25;3.30;99.90
48007;DHT22;33771;48.180;11.400;2024-03-25T02:39:52;3.30;99.90
48007;DHT22;33771;48.180;11.400;2024-03-25T02:42:18;3.40;99.90
48007;DHT22;33771;48.180;11.400;2024-03-25T02:44:45;3.30;99.90
48007;DHT22;33771;48.180;11.400;2024-03-25T02:47:10;3.40;99.90
48007;DHT22;33771;48.180;11.400;2024-03-25T02:49:37;3.40;99.90
48007;DHT22;33771;48.180;11.400;2024-03-25T02:52:02;3.40;99.90
48007;DHT22;33771;48.180;11.400;2024-03-25T02:54:28;3.40;99.90
48007;DHT22;33771;48.180;11.400;2024-03-25T02:56:54;3.40;99.90
48007;DHT22;33771;48.180;11.400;2024-03-25T02:59:19;3.40;99.90
48007;DHT22;33771;48.180;11.400;2024-03-25T03:01:45;3.40;99.90
48007;DHT22;33771;48.180;11.400;2024-03-25T03:04:10;3.40;99.90
48007;DHT22;33771;48.180;11.400;2024-03-25T03:06:36;3.40;99.90
48007;DHT22;33771;48.180;11.400;2024-03-25T03:09:01;3.40;99.90
48007;DHT22;33771;48.180;11.400;2024-03-25T03:11:27;3.50;99.90
48007;DHT22;33771;48.180;11.400;2024-03-25T03:13:52;3.50;99.90
48007;DHT22;33771;48.180;11.400;2024-03-25T03:16:18;3.50;99.90
48007;DHT22;33771;48.180;11.400;2024-03-25T03:18:43;3.50;99.90
48007;DHT22;33771;48.180;11.400;2024-03-25T03:21:09;3.50;99.90
48007;DHT22;33771;48.180;11.400;2024-03-25T03:23:35;3.40;99.90
48007;DHT22;33771;48.180;11.400;2024-03-25T03:26:00;3.40;99.90
48007;DHT22;33771;48.180;11.400;2024-03-25T03:28:26;3.40;99.90
48007;DHT22;33771;48.180;11.400;2024-03-25T03:30:53;3.40;99.90
48007;DHT22;33771;48.180;11.400;2024-03-25T03:33:19;3.30;99.90
48007;DHT22;33771;48.180;11.400;2024-03-25T03:35:44;3.30;99.90
48007;DHT22;33771;48.180;11.400;2024-03-25T03:38:10;3.30;99.90
48007;DHT22;33771;48.180;11.400;2024-03-25T03:40:35;3.30;99.90
48007;DHT22;33771;48.180;11.400;2024-03-25T03:43:01;3.30;99.90
48007;DHT22;33771;48.180;11.400;2024-03-25T03:45:26;3.20;99.90
48007;DHT22;33771;48.180;11.400;2024-03-25T03:47:52;3.10;99.90
48007;DHT22;33771;48.180;11.400;2024-03-25T03:50:18;3.10;99.90
48007;DHT22;33771;48.180;11.400;2024-03-25T03:52:43;3.00;99.90
48007;DHT22;33771;48.180;11.400;2024-03-25T03:55:09;3.00;99.90
48007;DHT22;33771;48.180;11.400;2024-03-25T03:57:34;2.90;99.90
48007;DHT22;33771;48.180;11.400;2024-03-25T04:00:00;2.80;99.90
48007;DHT22;33771;48.180;11.400;2024-03-25T04:02:29;2.70;99.90
48007;DHT22;33771;48.180;11.400;2024-03-25T04:04:54;2.70;99.90
48007;DHT22;33771;48.180;11.400;2024-03-25T04:07:20;2.70;99.90
48007;DHT22;33771;48.180;11.400;2024-03-25T04:09:53;2.60;99.90
48007;DHT22;33771;48.180;11.400;2024-03-25T04:12:18;2.60;99.90
48007;DHT22;33771;48.180;11.400;2024-03-25T04:14:47;2.50;99.90
48007;DHT22;33771;48.180;11.400;2024-03-25T04:17:12;2.40;99.90
48007;DHT22;33771;48.180;11.400;2024-03-25T04:19:38;2.40;99.90
48007;DHT22;33771;48.180;11.400;2024-03-25T04:22:04;2.40;99.90
48007;DHT22;33771;48.180;11.400;2024-03-25T04:24:29;2.40;99.90
48007;DHT22;33771;48.180;11.400;2024-03-25T04:26:55;2.40;99.90
48007;DHT22;33771;48.180;11.400;2024-03-25T04:29:20;2.40;99.90
48007;DHT22;33771;48.180;11.400;2024-03-25T04:31:46;2.30;99.90
48007;DHT22;33771;48.180;11.400;2024-03-25T04:34:12;2.40;99.90
48007;DHT22;33771;48.180;11.400;2024-03-25T04:36:38;2.40;99.90
48007;DHT22;33771;48.180;11.400;2024-03-25T04:39:03;2.40;99.90
48007;DHT22;33771;48.180;11.400;2024-03-25T04:41:33;2.40;99.90
48007;DHT22;33771;48.180;11.400;2024-03-25T04:43:59;2.30;99.90
48007;DHT22;33771;48.180;11.400;2024-03-25T04:46:24;2.30;99.90
48007;DHT22;33771;48.180;11.400;2024-03-25T04:48:50;2.30;99.90
48007;DHT22;33771;48.180;11.400;2024-03-25T04:51:15;2.30;99.90
48007;DHT22;33771;48.180;11.400;2024-03-25T04:53:41;2.30;99.90
48007;DHT22;33771;48.180;11.400;2024-03-25T04:56:06;2.30;99.90
48007;DHT22;33771;48.180;11.400;2024-03-25T04:58:32;2.30;99.90
48007;DHT22;33771;48.180;11.400;2024-03-25T05:00:57;2.30;99.90
48007;DHT22;33771;48.180;11.400;2024-03-25T05:03:23;2.30;99.90
48007;DHT22;33771;48.180;11.400;2024-03-25T05:05:48;2.20;99.90
48007;DHT22;33771;48.180;11.400;2024-03-25T05:08:14;2.20;99.90
48007;DHT22;33771;48.180;11.400;2024-03-25T05:10:40;2.20;99.90
48007;DHT22;33771;48.180;11.400;2024-03-25T05:13:05;2.20;99.90
48007;DHT22;33771;48.180;11.400;2024-03-25T05:15:31;2.20;99.90
48007;DHT22;33771;48.180;11.400;2024-03-25T05:17:56;2.20;99.90
48007;DHT22;33771;48.180;11.400;2024-03-25T05:20:22;2.20;99.90
48007;DHT22;33771;48.180;11.400;2024-03-25T05:22:48;2.20;99.90
48007;DHT22;33771;48.180;11.400;2024-03-25T05:25:13;2.20;99.90
48007;DHT22;33771;48.180;11.400;2024-03-25T05:27:39;2.20;99.90
48007;DHT22;33771;48.180;11.400;2024-03-25T05:30:05;2.30;99.90
48007;DHT22;33771;48.180;11.400;2024-03-25T05:32:31;2.30;99.90
48007;DHT22;33771;48.180;11.400;2024-03-25T05:34:56;2.30;99.90
48007;DHT22;33771;48.180;11.400;2024-03-25T05:37:22;2.30;99.90
48007;DHT22;33771;48.180;11.400;2024-03-25T05:39:47;2.30;99.90
48007;DHT22;33771;48.180;11.400;2024-03-25T05:42:13;2.30;99.90
48007;DHT22;33771;48.180;11.400;2024-03-25T05:44:38;2.40;99.90
48007;DHT22;33771;48.180;11.400;2024-03-25T05:47:04;2.40;99.90
48007;DHT22;33771;48.180;11.400;2024-03-25T05:49:29;2.40;99.90
48007;DHT22;33771;48.180;11.400;2024-03-25T05:51:55;2.40;99.90
48007;DHT22;33771;48.180;11.400;2024-03-25T05:54:20;2.50;99.90
48007;DHT22;33771;48.180;11.400;2024-03-25T05:56:46;2.50;99.90
48007;DHT22;33771;48.180;11.400;2024-03-25T05:59:11;2.60;99.90
48007;DHT22;33771;48.180;11.400;2024-03-25T06:01:37;2.60;99.90
48007;DHT22;33771;48.180;11.400;2024-03-25T06:04:03;2.70;99.90
48007;DHT22;33771;48.180;11.400;2024-03-25T06:06:29;2.70;99.90
48007;DHT22;33771;48.180;11.400;2024-03-25T06:08:55;2.70;99.90
48007;DHT22;33771;48.180;11.400;2024-03-25T06:11:20;2.70;99.90
48007;DHT22;33771;48.180;11.400;2024-03-25T06:13:46;2.80;99.90
48007;DHT22;33771;48.180;11.400;2024-03-25T06:16:13;2.80;99.90
48007;DHT22;33771;48.180;11.400;2024-03-25T06:18:39;2.80;99.90
48007;DHT22;33771;48.180;11.400;2024-03-25T06:21:05;2.90;99.90
48007;DHT22;33771;48.180;11.400;2024-03-25T06:23:31;2.90;99.90
48007;DHT22;33771;48.180;11.400;2024-03-25T06:25:57;2.90;99.90
48007;DHT22;33771;48.180;11.400;2024-03-25T06:28:23;2.90;99.90
48007;DHT22;33771;48.180;11.400;2024-03-25T06:30:50;3.00;99.90
48007;DHT22;33771;48.180;11.400;2024-03-25T06:33:34;3.10;99.90
48007;DHT22;33771;48.180;11.400;2024-03-25T06:36:18;3.20;99.90
48007;DHT22;33771;48.180;11.400;2024-03-25T06:38:44;3.30;99.90
48007;DHT22;33771;48.180;11.400;2024-03-25T06:41:10;3.40;99.90
48007;DHT22;33771;48.180;11.400;2024-03-25T06:43:38;3.50;99.90
48007;DHT22;33771;48.180;11.400;2024-03-25T06:46:04;3.60;99.90
48007;DHT22;33771;48.180;11.400;2024-03-25T06:48:30;3.60;99.90
48007;DHT22;33771;48.180;11.400;2024-03-25T06:50:57;3.70;99.90
48007;DHT22;33771;48.180;11.400;2024-03-25T06:53:23;3.80;99.90
48007;DHT22;33771;48.180;11.400;2024-03-25T06:55:56;3.90;99.90
48007;DHT22;33771;48.180;11.400;2024-03-25T06:58:23;4.00;99.90
48007;DHT22;33771;48.180;11.400;2024-03-25T07:00:49;4.10;99.90
48007;DHT22;33771;48.180;11.400;2024-03-25T07:03:17;4.20;99.90
48007;DHT22;33771;48.180;11.400;2024-03-25T07:05:47;4.30;99.90
48007;DHT22;33771;48.180;11.400;2024-03-25T07:08:13;4.40;99.90
48007;DHT22;33771;48.180;11.400;2024-03-25T07:10:41;4.50;99.90
48007;DHT22;33771;48.180;11.400;2024-03-25T07:13:06;4.50;99.90
48007;DHT22;33771;48.180;11.400;2024-03-25T07:15:32;4.60;99.90
48007;DHT22;33771;48.180;11.400;2024-03-25T07:17:58;4.80;99.90
48007;DHT22;33771;48.180;11.400;2024-03-25T07:20:24;4.90;99.90
48007;DHT22;33771;48.180;11.400;2024-03-25T07:22:49;5.10;99.90
48007;DHT22;33771;48.180;11.400;2024-03-25T07:25:15;5.20;99.90
48007;DHT22;33771;48.180;11.400;2024-03-25T07:27:41;5.20;99.90
48007;DHT22;33771;48.180;11.400;2024-03-25T07:30:07;5.20;99.90
48007;DHT22;33771;48.180;11.400;2024-03-25T07:32:36;5.30;99.90
48007;DHT22;33771;48.180;11.400;2024-03-25T07:35:01;5.30;99.90
48007;DHT22;33771;48.180;11.400;2024-03-25T07:37:27;5.40;99.90
48007;DHT22;33771;48.180;11.400;2024-03-25T07:39:52;5.50;99.90
48007;DHT22;33771;48.180;11.400;2024-03-25T07:42:18;5.50;99.90
48007;DHT22;33771;48.180;11.400;2024-03-25T07:44:43;5.60;99.90
48007;DHT22;33771;48.180;11.400;2024-03-25T07:47:09;5.70;99.90
48007;DHT22;33771;48.180;11.400;2024-03-25T07:49:35;5.80;99.90
48007;DHT22;33771;48.180;11.400;2024-03-25T07:52:01;5.90;99.90
48007;DHT22;33771;48.180;11.400;2024-03-25T07:54:26;6.00;99.90
48007;DHT22;33771;48.180;11.400;2024-03-25T07:56:52;6.00;99.90
48007;DHT22;33771;48.180;11.400;2024-03-25T07:59:18;6.00;99.90
48007;DHT22;33771;48.180;11.400;2024-03-25T08:01:44;6.10;99.90
48007;DHT22;33771;48.180;11.400;2024-03-25T08:04:09;6.20;99.90
48007;DHT22;33771;48.180;11.400;2024-03-25T08:06:35;6.20;99.90
48007;DHT22;33771;48.180;11.400;2024-03-25T08:09:00;6.20;99.90
48007;DHT22;33771;48.180;11.400;2024-03-25T08:11:26;6.30;99.90
48007;DHT22;33771;48.180;11.400;2024-03-25T08:13:52;6.40;99.90
48007;DHT22;33771;48.180;11.400;2024-03-25T08:16:18;6.50;99.90
48007;DHT22;33771;48.180;11.400;2024-03-25T08:18:45;6.70;99.90
48007;DHT22;33771;48.180;11.400;2024-03-25T08:21:10;6.80;99.90
48007;DHT22;33771;48.180;11.400;2024-03-25T08:23:36;6.80;99.90
48007;DHT22;33771;48.180;11.400;2024-03-25T08:26:01;6.90;99.90
48007;DHT22;33771;48.180;11.400;2024-03-25T08:28:27;6.80;99.90
48007;DHT22;33771;48.180;11.400;2024-03-25T08:30:53;6.80;99.90
48007;DHT22;33771;48.180;11.400;2024-03-25T08:33:18;6.80;99.90
48007;DHT22;33771;48.180;11.400;2024-03-25T08:35:44;6.80;99.90
48007;DHT22;33771;48.180;11.400;2024-03-25T08:38:09;6.70;99.90
48007;DHT22;33771;48.180;11.400;2024-03-25T08:40:35;6.60;99.90
48007;DHT22;33771;48.180;11.400;2024-03-25T08:43:00;6.70;99.90
48007;DHT22;33771;48.180;11.400;2024-03-25T08:45:26;6.80;99.90
48007;DHT22;33771;48.180;11.400;2024-03-25T08:47:52;6.90;99.90
48007;DHT22;33771;48.180;11.400;2024-03-25T08:50:17;7.00;99.90
48007;DHT22;33771;48.180;11.400;2024-03-25T08:52:43;7.20;99.90
48007;DHT22;33771;48.180;11.400;2024-03-25T08:55:08;7.20;99.90
48007;DHT22;33771;48.180;11.400;2024-03-25T08:57:34;7.30;99.90
48007;DHT22;33771;48.180;11.400;2024-03-25T09:00:00;7.50;99.90
48007;DHT22;33771;48.180;11.400;2024-03-25T09:02:25;7.60;99.90
48007;DHT22;33771;48.180;11.400;2024-03-25T09:04:51;7.60;99.90
48007;DHT22;33771;48.180;11.400;2024-03-25T09:07:18;7.60;99.90
48007;DHT22;33771;48.180;11.400;2024-03-25T09:09:43;7.80;99.90
48007;DHT22;33771;48.180;11.400;2024-03-25T09:12:27;8.00;99.90
48007;DHT22;33771;48.180;11.400;2024-03-25T09:14:53;8.30;99.90
48007;DHT22;33771;48.180;11.400;2024-03-25T09:17:19;8.50;99.90
48007;DHT22;33771;48.180;11.400;2024-03-25T09:19:44;8.50;99.90
48007;DHT22;33771;48.180;11.400;2024-03-25T09:22:10;8.40;99.90
48007;DHT22;33771;48.180;11.400;2024-03-25T09:24:35;8.30;99.90
48007;DHT22;33771;48.180;11.400;2024-03-25T09:27:01;8.30;99.90
48007;DHT22;33771;48.180;11.400;2024-03-25T09:29:26;8.40;99.90
48007;DHT22;33771;48.180;11.400;2024-03-25T09:31:52;8.60;99.90
48007;DHT22;33771;48.180;11.400;2024-03-25T09:34:17;8.60;99.90
48007;DHT22;33771;48.180;11.400;2024-03-25T09:36:43;8.60;99.90
48007;DHT22;33771;48.180;11.400;2024-03-25T09:39:08;8.80;99.90
48007;DHT22;33771;48.180;11.400;2024-03-25T09:41:35;8.90;99.90
48007;DHT22;33771;48.180;11.400;2024-03-25T09:44:03;9.10;99.90
48007;DHT22;33771;48.180;11.400;2024-03-25T09:46:31;9.30;99.90
48007;DHT22;33771;48.180;11.400;2024-03-25T09:48:56;9.50;99.90
48007;DHT22;33771;48.180;11.400;2024-03-25T09:51:22;9.70;99.90
48007;DHT22;33771;48.180;11.400;2024-03-25T09:53:48;9.90;99.90
48007;DHT22;33771;48.180;11.400;2024-03-25T09:56:13;10.10;99.90
48007;DHT22;33771;48.180;11.400;2024-03-25T09:58:43;10.40;99.90
48007;DHT22;33771;48.180;11.400;2024-03-25T10:01:09;10.60;99.90
48007;DHT22;33771;48.180;11.400;2024-03-25T10:03:35;10.70;99.90
48007;DHT22;33771;48.180;11.400;2024-03-25T10:06:01;10.90;99.90
48007;DHT22;33771;48.180;11.400;2024-03-25T10:08:26;11.00;99.90
48007;DHT22;33771;48.180;11.400;2024-03-25T10:10:55;10.90;99.90
48007;DHT22;33771;48.180;11.400;2024-03-25T10:13:21;11.00;99.90
48007;DHT22;33771;48.180;11.400;2024-03-25T10:15:48;11.20;99.90
48007;DHT22;33771;48.180;11.400;2024-03-25T10:18:14;11.20;99.90
48007;DHT22;33771;48.180;11.400;2024-03-25T10:20:48;11.10;99.90
48007;DHT22;33771;48.180;11.400;2024-03-25T10:23:13;11.00;99.90
48007;DHT22;33771;48.180;11.400;2024-03-25T10:25:39;10.90;99.90
48007;DHT22;33771;48.180;11.400;2024-03-25T10:28:05;11.00;99.90
48007;DHT22;33771;48.180;11.400;2024-03-25T10:30:31;11.40;99.90
48007;DHT22;33771;48.180;11.400;2024-03-25T10:33:04;11.60;99.90
48007;DHT22;33771;48.180;11.400;2024-03-25T10:35:32;11.70;99.90
48007;DHT22;33771;48.180;11.400;2024-03-25T10:38:02;11.80;99.90
48007;DHT22;33771;48.180;11.400;2024-03-25T10:40:34;11.80;99.90
48007;DHT22;33771;48.180;11.400;2024-03-25T10:43:07;11.90;99.90
48007;DHT22;33771;48.180;11.400;2024-03-25T10:45:45;11.90;99.90
48007;DHT22;33771;48.180;11.400;2024-03-25T10:48:15;11.90;99.90
48007;DHT22;33771;48.180;11.400;2024-03-25T10:50:43;11.80;99.90
48007;DHT22;33771;48.180;11.400;2024-03-25T10:53:10;11.90;99.90
48007;DHT22;33771;48.180;11.400;2024-03-25T10:55:36;12.10;99.90
48007;DHT22;33771;48.180;11.400;2024-03-25T10:58:06;12.10;99.90
48007;DHT22;33771;48.180;11.400;2024-03-25T11:00:33;12.10;99.90
48007;DHT22;33771;48.180;11.400;2024-03-25T11:03:00;12.00;99.90
48007;DHT22;33771;48.180;11.400;2024-03-25T11:05:26;11.70;99.90
48007;DHT22;33771;48.180;11.400;2024-03-25T11:07:52;11.50;99.90
48007;DHT22;33771;48.180;11.400;2024-03-25T11:10:18;11.20;99.90
48007;DHT22;33771;48.180;11.400;2024-03-25T11:12:43;11.00;99.90
48007;DHT22;33771;48.180;11.400;2024-03-25T11:15:09;11.10;99.90
48007;DHT22;33771;48.180;11.400;2024-03-25T11:17:36;11.50;99.90
48007;DHT22;33771;48.180;11.400;2024-03-25T11:20:12;11.80;99.90
48007;DHT22;33771;48.180;11.400;2024-03-25T11:22:51;12.00;99.90
48007;DHT22;33771;48.180;11.400;2024-03-25T11:25:17;12.10;99.90
48007;DHT22;33771;48.180;11.400;2024-03-25T11:27:44;12.30;99.90
48007;DHT22;33771;48.180;11.400;2024-03-25T11:30:11;12.60;99.90
48007;DHT22;33771;48.180;11.400;2024-03-25T11:32:49;12.70;99.90
48007;DHT22;33771;48.180;11.400;2024-03-25T11:35:16;12.60;99.90
48007;DHT22;33771;48.180;11.400;2024-03-25T11:37:42;12.70;99.90
48007;DHT22;33771;48.180;11.400;2024-03-25T11:40:12;12.80;99.90
48007;DHT22;33771;48.180;11.400;2024-03-25T11:42:43;12.70;99.90
48007;DHT22;33771;48.180;11.400;2024-03-25T11:47:46;12.40;99.90
48007;DHT22;33771;48.180;11.400;2024-03-25T11:50:13;12.00;99.90
48007;DHT22;33771;48.180;11.400;2024-03-25T11:52:40;11.90;99.90
48007;DHT22;33771;48.180;11.400;2024-03-25T11:55:06;11.90;99.90
48007;DHT22;33771;48.180;11.400;2024-03-25T11:57:34;11.70;99.90
48007;DHT22;33771;48.180;11.400;2024-03-25T12:00:01;11.60;99.90
48007;DHT22;33771;48.180;11.400;2024-03-25T12:02:28;11.60;99.90
48007;DHT22;33771;48.180;11.400;2024-03-25T12:04:54;11.60;99.90
48007;DHT22;33771;48.180;11.400;2024-03-25T12:07:19;11.40;99.90
48007;DHT22;33771;48.180;11.400;2024-03-25T12:09:45;11.30;99.90
48007;DHT22;33771;48.180;11.400;2024-03-25T12:12:29;11.40;99.90
48007;DHT22;33771;48.180;11.400;2024-03-25T12:14:55;11.70;99.90
48007;DHT22;33771;48.180;11.400;2024-03-25T12:17:22;12.10;99.90
48007;DHT22;33771;48.180;11.400;2024-03-25T12:20:05;12.40;99.90
48007;DHT22;33771;48.180;11.400;2024-03-25T12:22:32;12.50;99.90
48007;DHT22;33771;48.180;11.400;2024-03-25T12:25:01;12.40;99.90
48007;DHT22;33771;48.180;11.400;2024-03-25T12:27:30;12.50;99.90
48007;DHT22;33771;48.180;11.400;2024-03-25T12:30:09;12.50;99.90
48007;DHT22;33771;48.180;11.400;2024-03-25T12:35:06;12.50;99.90
48007;DHT22;33771;48.180;11.400;2024-03-25T12:37:32;12.40;99.90
48007;DHT22;33771;48.180;11.400;2024-03-25T12:39:58;12.50;99.90
48007;DHT22;33771;48.180;11.400;2024-03-25T12:42:25;12.50;99.90
48007;DHT22;33771;48.180;11.400;2024-03-25T12:44:52;12.40;99.90
48007;DHT22;33771;48.180;11.400;2024-03-25T12:47:18;12.40;99.90
48007;DHT22;33771;48.180;11.400;2024-03-25T12:49:43;12.10;99.90
48007;DHT22;33771;48.180;11.400;2024-03-25T12:52:09;11.90;99.90
48007;DHT22;33771;48.180;11.400;2024-03-25T12:54:35;11.80;99.90
48007;DHT22;33771;48.180;11.400;2024-03-25T12:57:01;12.00;99.90
48007;DHT22;33771;48.180;11.400;2024-03-25T12:59:27;12.20;99.90
48007;DHT22;33771;48.180;11.400;2024-03-25T13:01:53;12.40;99.90
48007;DHT22;33771;48.180;11.400;2024-03-25T13:04:19;12.70;99.90
48007;DHT22;33771;48.180;11.400;2024-03-25T13:06:44;13.00;99.90
48007;DHT22;33771;48.180;11.400;2024-03-25T13:09:10;13.20;99.90
48007;DHT22;33771;48.180;11.400;2024-03-25T13:11:36;13.10;99.90
48007;DHT22;33771;48.180;11.400;2024-03-25T13:14:03;12.90;99.90
48007;DHT22;33771;48.180;11.400;2024-03-25T13:16:32;13.10;99.90
48007;DHT22;33771;48.180;11.400;2024-03-25T13:18:57;13.10;99.90
48007;DHT22;33771;48.180;11.400;2024-03-25T13:21:24;13.10;99.90
48007;DHT22;33771;48.180;11.400;2024-03-25T13:23:50;12.90;99.90
48007;DHT22;33771;48.180;11.400;2024-03-25T13:26:16;12.80;99.90
48007;DHT22;33771;48.180;11.400;2024-03-25T13:28:41;12.80;99.90
48007;DHT22;33771;48.180;11.400;2024-03-25T13:31:07;12.80;99.90
48007;DHT22;33771;48.180;11.400;2024-03-25T13:33:32;12.80;99.90
48007;DHT22;33771;48.180;11.400;2024-03-25T13:35:58;12.90;99.90
48007;DHT22;33771;48.180;11.400;2024-03-25T13:38:23;12.90;99.40
48007;DHT22;33771;48.180;11.400;2024-03-25T13:40:50;12.80;99.50
48007;DHT22;33771;48.180;11.400;2024-03-25T13:43:15;12.70;99.90
48007;DHT22;33771;48.180;11.400;2024-03-25T13:45:45;12.70;99.90
48007;DHT22;33771;48.180;11.400;2024-03-25T13:48:11;12.60;99.90
48007;DHT22;33771;48.180;11.400;2024-03-25T13:50:36;12.50;99.90
48007;DHT22;33771;48.180;11.400;2024-03-25T13:53:02;12.50;99.90
48007;DHT22;33771;48.180;11.400;2024-03-25T13:55:28;12.40;99.00
48007;DHT22;33771;48.180;11.400;2024-03-25T13:57:53;12.40;99.90
48007;DHT22;33771;48.180;11.400;2024-03-25T14:00:18;12.30;99.90
48007;DHT22;33771;48.180;11.400;2024-03-25T14:02:44;12.30;99.90
48007;DHT22;33771;48.180;11.400;2024-03-25T14:05:09;12.30;99.90
48007;DHT22;33771;48.180;11.400;2024-03-25T14:07:35;12.40;99.90
48007;DHT22;33771;48.180;11.400;2024-03-25T14:10:01;12.50;99.90
48007;DHT22;33771;48.180;11.400;2024-03-25T14:12:26;12.70;99.90
48007;DHT22;33771;48.180;11.400;2024-03-25T14:14:52;12.70;99.90
48007;DHT22;33771;48.180;11.400;2024-03-25T14:17:17;12.50;99.90
48007;DHT22;33771;48.180;11.400;2024-03-25T14:19:43;12.50;99.90
48007;DHT22;33771;48.180;11.400;2024-03-25T14:22:08;12.60;99.90
48007;DHT22;33771;48.180;11.400;2024-03-25T14:24:34;12.50;99.90
48007;DHT22;33771;48.180;11.400;2024-03-25T14:26:59;12.50;99.90
48007;DHT22;33771;48.180;11.400;2024-03-25T14:29:25;12.40;99.90
48007;DHT22;33771;48.180;11.400;2024-03-25T14:31:50;12.30;98.70
48007;DHT22;33771;48.180;11.400;2024-03-25T14:34:16;12.20;99.60
48007;DHT22;33771;48.180;11.400;2024-03-25T14:36:41;12.20;99.60
48007;DHT22;33771;48.180;11.400;2024-03-25T14:39:08;12.10;99.60
48007;DHT22;33771;48.180;11.400;2024-03-25T14:41:40;12.20;99.70
48007;DHT22;33771;48.180;11.400;2024-03-25T14:44:07;12.20;98.80
48007;DHT22;33771;48.180;11.400;2024-03-25T14:46:32;12.40;99.90
48007;DHT22;33771;48.180;11.400;2024-03-25T14:48:58;12.40;97.60
48007;DHT22;33771;48.180;11.400;2024-03-25T14:51:23;12.40;99.40
48007;DHT22;33771;48.180;11.400;2024-03-25T14:53:49;12.40;98.10
48007;DHT22;33771;48.180;11.400;2024-03-25T14:56:14;12.40;98.30
48007;DHT22;33771;48.180;11.400;2024-03-25T14:58:40;12.50;97.10
48007;DHT22;33771;48.180;11.400;2024-03-25T15:01:05;12.40;98.00
48007;DHT22;33771;48.180;11.400;2024-03-25T15:03:31;12.50;97.10
48007;DHT22;33771;48.180;11.400;2024-03-25T15:05:56;12.50;97.80
48007;DHT22;33771;48.180;11.400;2024-03-25T15:08:22;12.60;99.90
48007;DHT22;33771;48.180;11.400;2024-03-25T15:10:47;12.50;99.70
48007;DHT22;33771;48.180;11.400;2024-03-25T15:13:13;12.40;99.10
48007;DHT22;33771;48.180;11.400;2024-03-25T15:15:39;12.20;98.70
48007;DHT22;33771;48.180;11.400;2024-03-25T15:18:05;12.00;99.50
48007;DHT22;33771;48.180;11.400;2024-03-25T15:20:32;11.80;99.50
48007;DHT22;33771;48.180;11.400;2024-03-25T15:22:57;11.70;99.90
48007;DHT22;33771;48.180;11.400;2024-03-25T15:25:23;11.60;99.90